Main page
METAR-TAF:

METAR-TAF

Airports :

Araxos, Greece

Araxos Airport

latitude: 38-09N, longitude: 021-25E, elevation: 11 m

Current weather observation

The report was made 11 minutes ago, at 09:50 UTC
Wind 13 kt from the Northeast
Temperature 24°C
Humidity 36%
Pressure 1021 hPa
Visibility 10 km or more
no clouds below 1500 m and no cumulonimbus

METAR: LGRX 190950Z 04013KT CAVOK 24/08 Q1021

Time: 13:01 (10:01 UTC)

Forecast

The report was made 2 hours and 1 minutes ago, at 08:00 UTC
Forecast valid from 19 at 09 UTC to 19 at 18 UTC
Wind 10 kt from the Northeast
Visibility: 9000 m
Few clouds at a height of 2500 ft

TAF: LGRX 190800Z 1909/1918 04010KT 9000 FEW025

Weather observations and forecasts of more than 4000 airports (METAR and TAF reports).

The available stations are represented by yellow and red dots on the map.

Hover mouse over dot to see the name of the station.

Then click to see weather observations and forecasts.

To change the map : click on the green buttons with a black cross to zoom in, on the green button with a dash to zoom out, or on the green arrows for adjacent maps.


METAR-TAF: